Bucklin, Kansas
Current Conditions -  °F | °C
As of 4:52 AM on Wednesday 26 Nov 2014 (Local Time) from KDDC Reporting Station
Overcast Overcast  
Wind Chill: 30°   Ceiling: 9000
Heat Index: 39°   Visibility: 10mi
Dew Point: 32°   Wind: 17mph
Humidity: 76%   Direction: 320°NW
Pressure: 30.07"   Gusts: 26mph
Location:  37.55°N, 99.63°W
Report Text: KDDC 261052Z AUTO 32015G23KT 10SM OVC090 04/00 A3007 RMK AO2 SLP187 T00390000
Loading
Personal Weather Stations






























Interactive Weather Map New forecast layout! Learn more

10-Day Weather Forecast

Advertisements
Track Severe Weather on mobile